createdAt,value
2023-11-03T00:02:22.041Z,97775.94
2023-11-03T00:04:48.791Z,97780.69
2023-11-03T00:07:18.847Z,97768.47
2023-11-03T00:09:46.175Z,97805.50
2023-11-03T00:12:12.879Z,97792.31
2023-11-03T00:14:39.441Z,97776.84
2023-11-03T00:17:07.940Z,97780.56
2023-11-03T00:19:34.743Z,97789.03
2023-11-03T00:22:01.496Z,97789.56
2023-11-03T00:24:29.443Z,97792.59
2023-11-03T00:26:56.039Z,97802.25
2023-11-03T00:29:23.996Z,97800.44
2023-11-03T00:31:50.627Z,97803.03
2023-11-03T00:34:17.880Z,97800.44
2023-11-03T00:36:46.709Z,97792.91
2023-11-03T00:39:14.082Z,97811.84
2023-11-03T00:41:42.651Z,97808.75
2023-11-03T00:44:10.186Z,97820.56
2023-11-03T00:46:37.163Z,97800.91
2023-11-03T00:49:03.979Z,97798.63
2023-11-03T00:51:30.702Z,97798.94
2023-11-03T00:53:57.567Z,97798.19
2023-11-03T00:56:24.180Z,97821.03
2023-11-03T00:58:53.177Z,97813.00
2023-11-03T01:01:19.833Z,97818.25
2023-11-03T01:03:47.387Z,97825.03
2023-11-03T01:06:14.169Z,97832.13
2023-11-03T01:08:40.804Z,97839.28
2023-11-03T01:11:10.634Z,97841.06
2023-11-03T01:13:38.058Z,97836.84
2023-11-03T01:16:08.416Z,97847.88
2023-11-03T01:18:35.620Z,97843.34
2023-11-03T01:21:05.126Z,97837.19
2023-11-03T01:23:33.355Z,97851.44
2023-11-03T01:25:59.848Z,97859.81
2023-11-03T01:28:26.403Z,97849.34
2023-11-03T01:30:54.161Z,97843.97
2023-11-03T01:33:22.163Z,97855.59
2023-11-03T01:35:48.774Z,97852.97
2023-11-03T01:38:15.379Z,97858.63
2023-11-03T01:40:42.210Z,97866.44
2023-11-03T01:43:10.672Z,97860.31
2023-11-03T01:45:37.516Z,97869.06
2023-11-03T01:48:04.984Z,97866.81
2023-11-03T01:50:33.100Z,97871.09
2023-11-03T01:52:59.754Z,97875.81
2023-11-03T01:55:26.609Z,97877.09
2023-11-03T01:57:53.275Z,97871.41
2023-11-03T02:00:21.765Z,97885.72
2023-11-03T02:02:49.164Z,97881.34
2023-11-03T02:05:15.700Z,97908.88
2023-11-03T02:07:44.306Z,97891.97
2023-11-03T02:10:10.983Z,97908.91
2023-11-03T02:12:37.671Z,97908.59
2023-11-03T02:15:06.807Z,97912.53
2023-11-03T02:17:33.517Z,97906.47
2023-11-03T02:20:00.099Z,97902.06
2023-11-03T02:22:26.916Z,97910.88
2023-11-03T02:24:54.969Z,97909.06
2023-11-03T02:27:21.640Z,97905.84
2023-11-03T02:29:48.276Z,97913.31
2023-11-03T02:32:15.011Z,97912.31
2023-11-03T02:34:41.773Z,97913.72
2023-11-03T02:37:08.410Z,97918.94
2023-11-03T02:39:36.447Z,97917.66
2023-11-03T02:42:07.595Z,97926.78
2023-11-03T02:44:34.286Z,97927.09
2023-11-03T02:47:00.936Z,97929.28
2023-11-03T02:49:28.872Z,97942.03
2023-11-03T02:51:55.582Z,97942.19
2023-11-03T02:54:22.157Z,97935.47
2023-11-03T02:56:48.802Z,97949.06
2023-11-03T02:59:16.833Z,97946.28
2023-11-03T03:01:43.492Z,97944.00
2023-11-03T03:04:10.263Z,97935.31
2023-11-03T03:06:36.998Z,97934.97
2023-11-03T03:09:03.925Z,97932.00
2023-11-03T03:11:30.489Z,97937.59
2023-11-03T03:13:57.116Z,97926.88
2023-11-03T03:16:25.464Z,97934.34
2023-11-03T03:18:52.118Z,97934.03
2023-11-03T03:21:19.007Z,97933.41
2023-11-03T03:23:45.721Z,97941.94
2023-11-03T03:26:12.347Z,97944.81
2023-11-03T03:28:38.948Z,97942.53
2023-11-03T03:31:06.231Z,97940.44
2023-11-03T03:33:34.276Z,97948.75
2023-11-03T03:36:00.954Z,97954.13
2023-11-03T03:38:27.508Z,97954.28
2023-11-03T03:40:54.114Z,97960.84
2023-11-03T03:43:20.802Z,97959.19
2023-11-03T03:45:47.535Z,97973.53
2023-11-03T03:48:14.155Z,97976.19
2023-11-03T03:50:42.076Z,97971.91
2023-11-03T03:53:08.887Z,97974.06
2023-11-03T03:55:35.443Z,97966.69
2023-11-03T03:58:02.085Z,97979.13
2023-11-03T04:00:28.676Z,97981.09
2023-11-03T04:02:55.408Z,97984.81
2023-11-03T04:05:22.121Z,97977.47
2023-11-03T04:07:50.189Z,97986.31
2023-11-03T04:10:16.767Z,97989.09
2023-11-03T04:12:43.394Z,97995.06
2023-11-03T04:15:10.357Z,97997.56
2023-11-03T04:17:36.968Z,97985.53
2023-11-03T04:20:05.207Z,97995.28
2023-11-03T04:22:32.020Z,98001.28
2023-11-03T04:25:00.007Z,98007.22
2023-11-03T04:27:26.873Z,98006.19
2023-11-03T04:29:53.434Z,98010.84
2023-11-03T04:32:19.974Z,98018.41
2023-11-03T04:34:46.677Z,98019.19
2023-11-03T04:37:13.346Z,98022.69
2023-11-03T04:39:39.945Z,98032.47
2023-11-03T04:42:08.126Z,98021.22
2023-11-03T04:44:35.493Z,98022.19
2023-11-03T04:47:01.951Z,98029.72
2023-11-03T04:49:31.121Z,98025.34
2023-11-03T04:51:57.961Z,98029.44
2023-11-03T04:54:24.550Z,98021.91
2023-11-03T04:56:51.099Z,98022.88
2023-11-03T04:59:21.411Z,98012.63
2023-11-03T05:01:48.925Z,98017.22
2023-11-03T05:04:15.840Z,98016.63
2023-11-03T05:06:42.523Z,98016.69
2023-11-03T05:09:10.193Z,98018.41
2023-11-03T05:11:37.233Z,98020.97
2023-11-03T05:14:03.856Z,98022.88
2023-11-03T05:16:32.725Z,98018.34
2023-11-03T05:18:59.746Z,98020.28
2023-11-03T05:21:26.364Z,98023.72
2023-11-03T05:23:52.903Z,98021.13
2023-11-03T05:26:19.466Z,98019.63
2023-11-03T05:28:46.183Z,98030.06
2023-11-03T05:31:13.925Z,98024.19
2023-11-03T05:33:42.060Z,98030.56
2023-11-03T05:36:12.245Z,98028.56
2023-11-03T05:38:39.891Z,98025.78
2023-11-03T05:41:06.634Z,98031.75
2023-11-03T05:43:33.379Z,98038.78
2023-11-03T05:45:59.982Z,98032.72
2023-11-03T05:48:26.770Z,98035.44
2023-11-03T05:50:54.761Z,98032.56
2023-11-03T05:53:21.385Z,98030.13
2023-11-03T05:55:48.245Z,98032.31
2023-11-03T05:58:14.918Z,98049.13
2023-11-03T06:00:41.620Z,98043.25
2023-11-03T06:03:09.143Z,98047.34
2023-11-03T06:05:35.708Z,98045.09
2023-11-03T06:08:03.862Z,98048.38
2023-11-03T06:10:30.379Z,98052.94
2023-11-03T06:12:57.032Z,98056.94
2023-11-03T06:15:23.636Z,98055.25
2023-11-03T06:17:50.290Z,98067.00
2023-11-03T06:20:16.969Z,98057.94
2023-11-03T06:22:43.510Z,98059.84
2023-11-03T06:25:11.442Z,98069.84
2023-11-03T06:27:38.022Z,98085.56
2023-11-03T06:30:07.669Z,98089.38
2023-11-03T06:32:34.307Z,98083.25
2023-11-03T06:35:00.988Z,98107.53
2023-11-03T06:37:27.732Z,98094.00
2023-11-03T06:39:55.588Z,98104.78
2023-11-03T06:42:24.469Z,98112.47
2023-11-03T06:44:51.005Z,98103.13
2023-11-03T06:47:17.583Z,98107.50
2023-11-03T06:49:47.070Z,98118.13
2023-11-03T06:52:13.765Z,98118.13
2023-11-03T06:54:40.457Z,98131.31
2023-11-03T06:57:07.616Z,98125.34
2023-11-03T06:59:35.846Z,98126.19
2023-11-03T07:02:02.608Z,98131.94
2023-11-03T07:04:29.175Z,98132.97
2023-11-03T07:06:55.931Z,98148.31
2023-11-03T07:09:24.348Z,98148.31
2023-11-03T07:11:51.830Z,98139.00
2023-11-03T07:14:18.792Z,98139.09
2023-11-03T07:16:48.871Z,98150.28
2023-11-03T07:19:15.734Z,98154.00
2023-11-03T07:21:42.426Z,98160.88
2023-11-03T07:24:10.103Z,98160.41
2023-11-03T07:26:36.916Z,98159.72
2023-11-03T07:29:04.245Z,98161.44
2023-11-03T07:31:32.108Z,98166.94
2023-11-03T07:34:01.524Z,98169.41
2023-11-03T07:36:28.674Z,98169.19
2023-11-03T07:38:55.335Z,98183.59
2023-11-03T07:41:23.337Z,98185.31
2023-11-03T07:43:50.005Z,98188.66
2023-11-03T07:46:16.625Z,98186.22
2023-11-03T07:48:43.369Z,98197.69
2023-11-03T07:51:11.798Z,98195.16
2023-11-03T07:53:38.397Z,98191.88
2023-11-03T07:56:05.275Z,98191.59
2023-11-03T07:58:33.749Z,98194.94
2023-11-03T08:01:00.477Z,98194.19
2023-11-03T08:03:30.068Z,98199.25
2023-11-03T08:05:57.904Z,98202.97
2023-11-03T08:08:26.451Z,98201.88
2023-11-03T08:10:54.001Z,98199.03
2023-11-03T08:13:23.523Z,98206.72
2023-11-03T08:15:50.093Z,98202.25
2023-11-03T08:18:17.380Z,98208.69
2023-11-03T08:20:43.975Z,98210.00
2023-11-03T08:23:15.709Z,98212.66
2023-11-03T08:25:45.190Z,98207.25
2023-11-03T08:28:11.973Z,98205.50
2023-11-03T08:30:40.318Z,98216.78
2023-11-03T08:33:08.052Z,98210.34
2023-11-03T08:35:35.356Z,98223.16
2023-11-03T08:38:03.537Z,98225.63
2023-11-03T08:40:30.567Z,98219.63
2023-11-03T08:42:58.809Z,98234.81
2023-11-03T08:45:26.914Z,98234.81
2023-11-03T08:47:53.724Z,98230.06
2023-11-03T08:50:20.428Z,98238.59
2023-11-03T08:52:48.788Z,98235.31
2023-11-03T08:55:15.924Z,98228.94
2023-11-03T08:57:43.734Z,98235.47
2023-11-03T09:00:16.426Z,98245.13
2023-11-03T09:02:43.581Z,98236.56
2023-11-03T09:05:13.305Z,98246.56
2023-11-03T09:07:41.252Z,98248.16
2023-11-03T09:10:09.284Z,98245.50
2023-11-03T09:12:36.412Z,98250.88
2023-11-03T09:15:04.859Z,98266.66
2023-11-03T09:17:32.917Z,98268.66
2023-11-03T09:20:00.159Z,98269.69
2023-11-03T09:22:35.685Z,98272.75
2023-11-03T09:25:04.642Z,98286.06
2023-11-03T09:27:32.627Z,98286.06
2023-11-03T09:29:59.339Z,98293.00
2023-11-03T09:32:28.457Z,98302.13
2023-11-03T09:34:56.472Z,98311.59
2023-11-03T09:37:23.235Z,98313.47
2023-11-03T09:39:49.966Z,98309.66
2023-11-03T09:42:21.134Z,98312.81
2023-11-03T09:44:47.886Z,98311.44
2023-11-03T09:47:16.794Z,98309.56
2023-11-03T09:49:46.956Z,98308.75
2023-11-03T09:52:15.465Z,98308.47
2023-11-03T09:54:42.537Z,98311.56
2023-11-03T09:57:11.281Z,98326.53
2023-11-03T09:59:39.134Z,98326.88
2023-11-03T10:02:10.819Z,98328.19
2023-11-03T10:04:39.483Z,98335.91
2023-11-03T10:07:06.572Z,98356.06
2023-11-03T10:09:34.522Z,98349.66
2023-11-03T10:12:02.091Z,98355.22
2023-11-03T10:14:29.014Z,98366.69
2023-11-03T10:16:58.189Z,98363.47
2023-11-03T10:19:26.715Z,98377.81
2023-11-03T10:21:53.461Z,98380.59
2023-11-03T10:24:20.519Z,98388.03
2023-11-03T10:26:48.778Z,98381.47
2023-11-03T10:29:16.798Z,98377.56
2023-11-03T10:31:48.120Z,98371.59
2023-11-03T10:34:15.955Z,98385.88
2023-11-03T10:36:42.869Z,98389.34
2023-11-03T10:39:09.942Z,98383.91
2023-11-03T10:41:36.918Z,98382.44
2023-11-03T10:44:06.590Z,98390.72
2023-11-03T10:46:39.127Z,98394.00
2023-11-03T10:49:15.683Z,98395.09
2023-11-03T10:52:02.015Z,98405.63
2023-11-03T10:54:34.107Z,98410.72
2023-11-03T10:57:30.863Z,98406.22
2023-11-03T10:59:58.032Z,98397.22
2023-11-03T11:02:30.243Z,98407.84
2023-11-03T11:05:03.999Z,98408.22
2023-11-03T11:07:34.606Z,98409.53
2023-11-03T11:10:01.978Z,98402.63
2023-11-03T11:12:40.534Z,98425.25
2023-11-03T11:15:13.305Z,98426.47
2023-11-03T11:17:39.935Z,98423.75
2023-11-03T11:20:11.633Z,98421.28
2023-11-03T11:22:41.025Z,98419.84
2023-11-03T11:25:11.327Z,98420.72
2023-11-03T11:27:41.001Z,98419.53
2023-11-03T11:30:15.466Z,98422.13
2023-11-03T11:32:45.965Z,98412.84
2023-11-03T11:35:12.891Z,98428.41
2023-11-03T11:37:39.519Z,98421.75
2023-11-03T11:40:09.359Z,98421.22
2023-11-03T11:42:43.658Z,98430.81
2023-11-03T11:45:12.082Z,98434.97
2023-11-03T11:47:45.093Z,98429.03
2023-11-03T11:50:13.022Z,98429.06
2023-11-03T11:52:41.376Z,98432.63
2023-11-03T11:55:10.275Z,98436.75
2023-11-03T11:57:38.908Z,98424.63
2023-11-03T12:00:08.740Z,98432.91
2023-11-03T12:02:35.313Z,98434.19
2023-11-03T12:05:05.212Z,98435.88
2023-11-03T12:07:32.114Z,98433.44
2023-11-03T12:09:58.814Z,98437.19
2023-11-03T12:12:25.518Z,98444.34
2023-11-03T12:14:52.483Z,98450.34
2023-11-03T12:17:23.497Z,98457.00
2023-11-03T12:19:51.144Z,98440.28
2023-11-03T12:22:22.301Z,98449.53
2023-11-03T12:24:49.417Z,98454.72
2023-11-03T12:27:17.993Z,98455.09
2023-11-03T12:29:45.874Z,98457.66
2023-11-03T12:32:12.895Z,98464.88
2023-11-03T12:34:41.395Z,98458.94
2023-11-03T12:37:08.591Z,98454.38
2023-11-03T12:39:49.140Z,98472.41
2023-11-03T12:42:16.170Z,98473.59
2023-11-03T12:44:50.120Z,98458.06
2023-11-03T12:47:41.463Z,98463.59
2023-11-03T12:50:19.153Z,98469.09
2023-11-03T12:52:50.722Z,98449.97
2023-11-03T12:55:23.878Z,98461.47
2023-11-03T12:57:50.989Z,98461.31
2023-11-03T13:00:18.377Z,98466.06
2023-11-03T13:02:47.734Z,98473.34
2023-11-03T13:05:15.630Z,98458.59
2023-11-03T13:07:43.379Z,98466.09
2023-11-03T13:10:10.746Z,98456.91
2023-11-03T13:12:38.801Z,98457.19
2023-11-03T13:15:07.280Z,98465.44
2023-11-03T13:17:34.416Z,98466.38
2023-11-03T13:20:01.049Z,98468.19
2023-11-03T13:22:29.167Z,98459.78
2023-11-03T13:24:55.992Z,98474.59
2023-11-03T13:27:22.679Z,98467.53
2023-11-03T13:29:51.250Z,98469.00
2023-11-03T13:32:20.162Z,98456.03
2023-11-03T13:34:46.991Z,98474.78
2023-11-03T13:37:14.248Z,98464.72
2023-11-03T13:39:40.837Z,98478.53
2023-11-03T13:42:08.588Z,98479.16
2023-11-03T13:44:36.990Z,98480.44
2023-11-03T13:47:05.332Z,98493.19
2023-11-03T13:49:35.690Z,98486.66
2023-11-03T13:52:02.955Z,98491.47
2023-11-03T13:54:29.579Z,98493.66
2023-11-03T13:56:56.727Z,98462.56
2023-11-03T13:59:23.436Z,98484.75
2023-11-03T14:01:50.181Z,98497.28
2023-11-03T14:04:18.112Z,98495.50
2023-11-03T14:06:44.708Z,98489.25
2023-11-03T14:09:12.542Z,98482.78
2023-11-03T14:11:39.420Z,98497.28
2023-11-03T14:14:06.112Z,98501.69
2023-11-03T14:16:32.740Z,98509.94
2023-11-03T14:18:59.568Z,98497.28
2023-11-03T14:21:30.440Z,98506.19
2023-11-03T14:23:57.685Z,98502.34
2023-11-03T14:26:24.485Z,98507.00
2023-11-03T14:31:18.352Z,98509.41
2023-11-03T14:33:45.951Z,98504.81
2023-11-03T14:36:13.797Z,98509.25
2023-11-03T14:38:43.787Z,98498.22
2023-11-03T14:41:11.219Z,98499.75
2023-11-03T14:43:40.216Z,98503.38
2023-11-03T14:46:06.974Z,98506.28
2023-11-03T14:48:34.159Z,98506.78
2023-11-03T14:51:01.088Z,98508.22
2023-11-03T14:53:31.718Z,98508.06
2023-11-03T14:56:01.663Z,98498.50
2023-11-03T14:58:28.557Z,98513.84
2023-11-03T15:00:55.472Z,98518.47
2023-11-03T15:03:22.144Z,98524.81
2023-11-03T15:05:50.294Z,98528.28
2023-11-03T15:08:17.628Z,98538.44
2023-11-03T15:10:44.551Z,98539.88
2023-11-03T15:13:12.612Z,98532.78
2023-11-03T15:15:39.724Z,98540.69
2023-11-03T15:18:09.613Z,98519.84
2023-11-03T15:20:37.125Z,98544.44
2023-11-03T15:23:03.880Z,98536.81
2023-11-03T15:25:30.696Z,98547.78
2023-11-03T15:27:57.447Z,98547.56
2023-11-03T15:30:26.185Z,98540.31
2023-11-03T15:32:52.876Z,98542.66
2023-11-03T15:35:19.725Z,98545.84
2023-11-03T15:37:46.380Z,98545.78
2023-11-03T15:40:18.815Z,98554.13
2023-11-03T15:42:45.737Z,98556.34
2023-11-03T15:45:14.335Z,98548.63
2023-11-03T15:47:45.048Z,98555.88
2023-11-03T15:50:14.644Z,98571.97
2023-11-03T15:52:41.308Z,98581.38
2023-11-03T15:55:11.634Z,98576.16
2023-11-03T15:57:38.257Z,98580.47
2023-11-03T16:00:07.548Z,98586.00
2023-11-03T16:02:35.199Z,98588.81
2023-11-03T16:05:04.530Z,98581.09
2023-11-03T16:07:31.627Z,98591.47
2023-11-03T16:10:00.387Z,98596.69
2023-11-03T16:12:28.311Z,98605.50
2023-11-03T16:14:55.176Z,98611.25
2023-11-03T16:17:21.802Z,98603.03
2023-11-03T16:19:48.615Z,98610.22
2023-11-03T16:22:17.199Z,98595.03
2023-11-03T16:24:43.864Z,98598.47
2023-11-03T16:27:10.524Z,98600.25
2023-11-03T16:29:38.928Z,98602.75
2023-11-03T16:32:07.327Z,98600.84
2023-11-03T16:34:34.441Z,98612.72
2023-11-03T16:37:02.117Z,98550.81
2023-11-03T16:39:30.049Z,98608.47
2023-11-03T16:41:57.220Z,98609.56
2023-11-03T16:44:23.814Z,98602.25
2023-11-03T16:46:50.400Z,98607.38
2023-11-03T16:49:17.177Z,98600.50
2023-11-03T16:51:47.617Z,98597.72
2023-11-03T16:54:15.439Z,98597.59
2023-11-03T16:56:43.509Z,98603.16
2023-11-03T16:59:10.734Z,98597.81
2023-11-03T17:01:39.541Z,98601.53
2023-11-03T17:04:07.295Z,98606.59
2023-11-03T17:06:33.940Z,98607.53
2023-11-03T17:09:00.789Z,98606.22
2023-11-03T17:11:27.325Z,98617.19
2023-11-03T17:13:56.526Z,98626.72
2023-11-03T17:16:25.571Z,98625.22
2023-11-03T17:18:52.914Z,98625.50
2023-11-03T17:21:19.608Z,98642.53
2023-11-03T17:23:46.224Z,98634.69
2023-11-03T17:26:12.790Z,98642.34
2023-11-03T17:28:39.410Z,98643.06
2023-11-03T17:31:07.916Z,98646.06
2023-11-03T17:33:34.667Z,98645.38
2023-11-03T17:36:01.614Z,98643.63
2023-11-03T17:38:28.272Z,98622.16
2023-11-03T17:40:54.876Z,98644.16
2023-11-03T17:43:21.636Z,98648.00
2023-11-03T17:45:50.528Z,98638.69
2023-11-03T17:48:18.607Z,98652.00
2023-11-03T17:50:48.175Z,98651.84
2023-11-03T17:53:15.028Z,98657.19
2023-11-03T17:55:42.675Z,98653.50
2023-11-03T17:58:10.077Z,98656.69
2023-11-03T18:00:36.505Z,98658.72
2023-11-03T18:03:03.118Z,98658.72
2023-11-03T18:05:32.227Z,98664.34
2023-11-03T18:07:58.846Z,98652.66
2023-11-03T18:10:26.346Z,98673.41
2023-11-03T18:12:53.751Z,98654.06
2023-11-03T18:15:23.066Z,98658.72
2023-11-03T18:17:50.200Z,98653.50
2023-11-03T18:20:18.541Z,98654.47
2023-11-03T18:22:48.840Z,98644.56
2023-11-03T18:25:16.428Z,98659.56
2023-11-03T18:27:43.042Z,98656.78
2023-11-03T18:30:15.925Z,98659.13
2023-11-03T18:32:42.632Z,98658.84
2023-11-03T18:35:11.874Z,98653.09
2023-11-03T18:37:39.759Z,98661.34
2023-11-03T18:40:14.234Z,98661.47
2023-11-03T18:42:41.538Z,98657.91
2023-11-03T18:45:09.713Z,98659.94
2023-11-03T18:47:36.683Z,98657.09
2023-11-03T18:52:33.552Z,98657.88
2023-11-03T18:55:56.876Z,98651.72
2023-11-03T18:58:31.455Z,98652.53
2023-11-03T19:04:41.557Z,98652.66
2023-11-03T19:07:28.320Z,98645.66
2023-11-03T19:08:39.364Z,98642.06
2023-11-03T19:11:06.269Z,98646.22
2023-11-03T19:13:34.141Z,98650.19
2023-11-03T19:16:01.612Z,98655.13
2023-11-03T19:18:29.921Z,98655.16
2023-11-03T19:20:56.572Z,98649.28
2023-11-03T19:23:25.732Z,98652.84
2023-11-03T19:25:52.384Z,98644.19
2023-11-03T19:28:18.986Z,98659.00
2023-11-03T19:30:47.072Z,98621.78
2023-11-03T19:33:14.321Z,98648.56
2023-11-03T19:35:48.715Z,98644.44
2023-11-03T19:38:17.120Z,98635.38
2023-11-03T19:40:43.841Z,98636.22
2023-11-03T19:43:10.443Z,98634.66
2023-11-03T19:45:37.114Z,98625.91
2023-11-03T19:48:06.101Z,98630.72
2023-11-03T19:50:33.663Z,98628.53
2023-11-03T19:53:00.392Z,98619.84
2023-11-03T19:55:26.973Z,98617.91
2023-11-03T19:57:53.616Z,98618.59
2023-11-03T20:00:22.085Z,98618.75
2023-11-03T20:02:49.540Z,98622.44
2023-11-03T20:05:17.658Z,98624.94
2023-11-03T20:07:44.621Z,98626.97
2023-11-03T20:10:11.255Z,98628.22
2023-11-03T20:12:37.793Z,98631.09
2023-11-03T20:15:04.904Z,98631.38
2023-11-03T20:17:31.602Z,98637.13
2023-11-03T20:19:58.300Z,98609.53
2023-11-03T20:22:28.047Z,98637.66
2023-11-03T20:24:54.641Z,98636.59
2023-11-03T20:27:21.280Z,98639.63
2023-11-03T20:29:48.517Z,98622.06
2023-11-03T20:32:15.720Z,98584.50
2023-11-03T20:34:42.332Z,98623.69
2023-11-03T20:37:10.934Z,98621.06
2023-11-03T20:39:39.595Z,98619.28
2023-11-03T20:42:07.558Z,98615.28
2023-11-03T20:44:34.772Z,98611.69
2023-11-03T20:47:01.579Z,98613.13
2023-11-03T20:49:28.199Z,98611.69
2023-11-03T20:51:54.754Z,98607.34
2023-11-03T20:54:23.671Z,98606.47
2023-11-03T20:56:51.719Z,98600.31
2023-11-03T20:59:19.444Z,98608.56
2023-11-03T21:01:47.686Z,98604.69
2023-11-03T21:04:14.519Z,98600.72
2023-11-03T21:06:42.076Z,98588.09
2023-11-03T21:09:09.781Z,98598.81
2023-11-03T21:11:36.642Z,98604.00
2023-11-03T21:14:04.735Z,98589.88
2023-11-03T21:16:31.291Z,98595.22
2023-11-03T21:18:58.002Z,98597.69
2023-11-03T21:21:24.732Z,98597.78
2023-11-03T21:23:53.189Z,98597.97
2023-11-03T21:26:22.164Z,98606.72
2023-11-03T21:28:49.008Z,98594.63
2023-11-03T21:31:18.026Z,98594.91
2023-11-03T21:33:49.986Z,98597.63
2023-11-03T21:36:22.758Z,98584.22
2023-11-03T21:38:49.362Z,98596.97
2023-11-03T21:41:16.052Z,98603.13
2023-11-03T21:43:42.653Z,98599.28
2023-11-03T21:46:20.672Z,98593.91
2023-11-03T21:48:47.318Z,98598.88
2023-11-03T21:51:15.081Z,98597.63
2023-11-03T21:53:41.689Z,98602.00
2023-11-03T21:56:09.637Z,98592.00
2023-11-03T21:58:36.245Z,98596.59
2023-11-03T22:01:05.487Z,98590.59
2023-11-03T22:03:33.521Z,98595.13
2023-11-03T22:06:00.517Z,98593.19
2023-11-03T22:08:27.444Z,98591.97
2023-11-03T22:10:54.196Z,98589.91
2023-11-03T22:13:20.902Z,98583.03
2023-11-03T22:15:47.520Z,98589.38
2023-11-03T22:18:14.356Z,98588.63
2023-11-03T22:20:42.343Z,98592.31
2023-11-03T22:23:09.253Z,98594.50
2023-11-03T22:25:35.896Z,98579.13
2023-11-03T22:28:03.650Z,98584.25
2023-11-03T22:30:30.291Z,98591.47
2023-11-03T22:32:56.894Z,98579.56
2023-11-03T22:35:23.541Z,98590.78
2023-11-03T22:37:51.774Z,98585.47
2023-11-03T22:40:18.408Z,98583.50
2023-11-03T22:42:45.271Z,98576.59
2023-11-03T22:45:12.917Z,98584.22
2023-11-03T22:47:41.406Z,98574.91
2023-11-03T22:50:08.541Z,98583.59
2023-11-03T22:52:35.128Z,98575.50
2023-11-03T22:55:03.429Z,98572.63
2023-11-03T22:57:30.019Z,98571.31
2023-11-03T22:59:56.645Z,98576.50
2023-11-03T23:02:25.098Z,98567.84
2023-11-03T23:04:51.765Z,98571.34
2023-11-03T23:07:18.389Z,98563.88
2023-11-03T23:09:45.965Z,98558.06
2023-11-03T23:12:13.946Z,98562.75
2023-11-03T23:14:40.859Z,98558.81
2023-11-03T23:17:07.587Z,98556.66
2023-11-03T23:19:34.719Z,98548.72
2023-11-03T23:22:01.362Z,98550.41
2023-11-03T23:24:27.984Z,98550.00
2023-11-03T23:26:54.703Z,98552.56
2023-11-03T23:29:23.201Z,98553.94
2023-11-03T23:31:50.813Z,98552.72
2023-11-03T23:34:17.708Z,98538.66
2023-11-03T23:36:44.416Z,98555.97
2023-11-03T23:39:11.705Z,98558.63
2023-11-03T23:41:38.391Z,98555.13
2023-11-03T23:44:08.184Z,98558.34
2023-11-03T23:46:36.174Z,98557.25
2023-11-03T23:49:02.798Z,98549.19
2023-11-03T23:51:31.305Z,98555.91
2023-11-03T23:53:58.112Z,98553.84
2023-11-03T23:56:24.669Z,98549.88
2023-11-03T23:58:51.294Z,98554.44
